sensor_id;sensor_type;location;lat;lon;timestamp;temperature;humidity
18884;DHT22;9574;47.282;9.640;2023-02-28T00:00:36;1.40;99.90
18884;DHT22;9574;47.282;9.640;2023-02-28T00:03:04;1.40;99.90
18884;DHT22;9574;47.282;9.640;2023-02-28T00:05:31;1.40;99.90
18884;DHT22;9574;47.282;9.640;2023-02-28T00:07:58;1.40;99.90
18884;DHT22;9574;47.282;9.640;2023-02-28T00:10:28;1.50;99.90
18884;DHT22;9574;47.282;9.640;2023-02-28T00:13:00;1.50;99.90
18884;DHT22;9574;47.282;9.640;2023-02-28T00:15:28;1.50;99.90
18884;DHT22;9574;47.282;9.640;2023-02-28T00:17:55;1.40;99.90
18884;DHT22;9574;47.282;9.640;2023-02-28T00:20:22;1.40;99.90
18884;DHT22;9574;47.282;9.640;2023-02-28T00:22:51;1.50;99.90
18884;DHT22;9574;47.282;9.640;2023-02-28T00:25:20;1.20;99.90
18884;DHT22;9574;47.282;9.640;2023-02-28T00:27:48;1.30;99.90
18884;DHT22;9574;47.282;9.640;2023-02-28T00:30:18;1.30;99.90
18884;DHT22;9574;47.282;9.640;2023-02-28T00:32:46;1.40;99.90
18884;DHT22;9574;47.282;9.640;2023-02-28T00:35:13;1.20;99.90
18884;DHT22;9574;47.282;9.640;2023-02-28T00:37:40;0.80;99.90
18884;DHT22;9574;47.282;9.640;2023-02-28T00:40:09;0.60;99.90
18884;DHT22;9574;47.282;9.640;2023-02-28T00:42:38;0.90;99.90
18884;DHT22;9574;47.282;9.640;2023-02-28T00:45:06;1.10;99.90
18884;DHT22;9574;47.282;9.640;2023-02-28T00:47:35;0.70;99.90
18884;DHT22;9574;47.282;9.640;2023-02-28T00:50:03;0.50;99.90
18884;DHT22;9574;47.282;9.640;2023-02-28T00:52:32;0.20;99.90
18884;DHT22;9574;47.282;9.640;2023-02-28T00:54:59;0.10;99.90
18884;DHT22;9574;47.282;9.640;2023-02-28T00:57:26;-0.10;99.90
18884;DHT22;9574;47.282;9.640;2023-02-28T00:59:54;-0.10;99.90
18884;DHT22;9574;47.282;9.640;2023-02-28T01:02:21;-0.20;99.90
18884;DHT22;9574;47.282;9.640;2023-02-28T01:04:49;-0.30;99.90
18884;DHT22;9574;47.282;9.640;2023-02-28T01:07:17;-0.30;99.90
18884;DHT22;9574;47.282;9.640;2023-02-28T01:09:43;-0.40;99.90
18884;DHT22;9574;47.282;9.640;2023-02-28T01:12:11;-0.40;99.90
18884;DHT22;9574;47.282;9.640;2023-02-28T01:14:38;-0.40;99.90
18884;DHT22;9574;47.282;9.640;2023-02-28T01:17:08;-0.40;99.90
18884;DHT22;9574;47.282;9.640;2023-02-28T01:19:36;-0.40;99.90
18884;DHT22;9574;47.282;9.640;2023-02-28T01:22:06;-0.40;99.90
18884;DHT22;9574;47.282;9.640;2023-02-28T01:24:33;-0.50;99.90
18884;DHT22;9574;47.282;9.640;2023-02-28T01:27:00;-0.30;99.90
18884;DHT22;9574;47.282;9.640;2023-02-28T01:29:27;0.20;99.90
18884;DHT22;9574;47.282;9.640;2023-02-28T01:31:54;0.50;99.90
18884;DHT22;9574;47.282;9.640;2023-02-28T01:34:22;0.70;99.90
18884;DHT22;9574;47.282;9.640;2023-02-28T01:36:49;0.70;99.90
18884;DHT22;9574;47.282;9.640;2023-02-28T01:39:17;0.80;99.90
18884;DHT22;9574;47.282;9.640;2023-02-28T01:41:44;0.80;99.90
18884;DHT22;9574;47.282;9.640;2023-02-28T01:47:12;0.30;99.90
18884;DHT22;9574;47.282;9.640;2023-02-28T01:49:39;0.30;99.90
18884;DHT22;9574;47.282;9.640;2023-02-28T01:52:06;0.00;99.90
18884;DHT22;9574;47.282;9.640;2023-02-28T01:54:36;-0.30;99.90
18884;DHT22;9574;47.282;9.640;2023-02-28T01:57:07;-0.40;99.90
18884;DHT22;9574;47.282;9.640;2023-02-28T01:59:38;-0.50;99.90
18884;DHT22;9574;47.282;9.640;2023-02-28T02:02:11;-0.60;99.90
18884;DHT22;9574;47.282;9.640;2023-02-28T02:04:43;-0.50;99.90
18884;DHT22;9574;47.282;9.640;2023-02-28T02:07:13;-0.20;99.90
18884;DHT22;9574;47.282;9.640;2023-02-28T02:09:42;-0.10;99.90
18884;DHT22;9574;47.282;9.640;2023-02-28T02:12:16;-0.20;99.90
18884;DHT22;9574;47.282;9.640;2023-02-28T02:14:57;-0.20;99.90
18884;DHT22;9574;47.282;9.640;2023-02-28T02:17:32;0.20;99.90
18884;DHT22;9574;47.282;9.640;2023-02-28T02:20:19;0.40;99.90
18884;DHT22;9574;47.282;9.640;2023-02-28T02:23:26;0.40;99.90
18884;DHT22;9574;47.282;9.640;2023-02-28T02:26:06;-0.10;99.90
18884;DHT22;9574;47.282;9.640;2023-02-28T02:34:47;-0.70;99.90
18884;DHT22;9574;47.282;9.640;2023-02-28T02:37:24;-0.80;99.90
18884;DHT22;9574;47.282;9.640;2023-02-28T02:40:03;-0.90;99.90
18884;DHT22;9574;47.282;9.640;2023-02-28T02:42:36;-0.90;99.90
18884;DHT22;9574;47.282;9.640;2023-02-28T02:45:07;-0.90;99.90
18884;DHT22;9574;47.282;9.640;2023-02-28T02:47:37;-0.80;99.90
18884;DHT22;9574;47.282;9.640;2023-02-28T02:50:11;-0.80;99.90
18884;DHT22;9574;47.282;9.640;2023-02-28T02:52:42;-0.90;99.90
18884;DHT22;9574;47.282;9.640;2023-02-28T02:55:12;-1.00;99.90
18884;DHT22;9574;47.282;9.640;2023-02-28T02:57:45;-1.00;99.90
18884;DHT22;9574;47.282;9.640;2023-02-28T03:00:14;-1.10;99.90
18884;DHT22;9574;47.282;9.640;2023-02-28T03:02:43;-1.20;99.90
18884;DHT22;9574;47.282;9.640;2023-02-28T03:05:18;-1.20;99.90
18884;DHT22;9574;47.282;9.640;2023-02-28T03:07:46;-1.20;99.90
18884;DHT22;9574;47.282;9.640;2023-02-28T03:10:34;-1.30;99.90
18884;DHT22;9574;47.282;9.640;2023-02-28T03:13:19;-1.00;99.90
18884;DHT22;9574;47.282;9.640;2023-02-28T03:15:58;-0.70;99.90
18884;DHT22;9574;47.282;9.640;2023-02-28T03:18:36;-0.60;99.90
18884;DHT22;9574;47.282;9.640;2023-02-28T03:21:12;-0.70;99.90
18884;DHT22;9574;47.282;9.640;2023-02-28T03:23:47;-0.70;99.90
18884;DHT22;9574;47.282;9.640;2023-02-28T03:26:19;-0.80;99.90
18884;DHT22;9574;47.282;9.640;2023-02-28T03:28:52;-0.90;99.90
18884;DHT22;9574;47.282;9.640;2023-02-28T03:31:24;-1.00;99.90
18884;DHT22;9574;47.282;9.640;2023-02-28T03:33:58;-1.20;99.90
18884;DHT22;9574;47.282;9.640;2023-02-28T03:36:30;-1.20;99.90
18884;DHT22;9574;47.282;9.640;2023-02-28T03:39:04;-1.20;99.90
18884;DHT22;9574;47.282;9.640;2023-02-28T03:41:36;-1.20;99.90
18884;DHT22;9574;47.282;9.640;2023-02-28T03:44:09;-1.20;99.90
18884;DHT22;9574;47.282;9.640;2023-02-28T03:46:44;-1.20;99.90
18884;DHT22;9574;47.282;9.640;2023-02-28T03:49:17;-1.20;99.90
18884;DHT22;9574;47.282;9.640;2023-02-28T03:51:48;-1.20;99.90
18884;DHT22;9574;47.282;9.640;2023-02-28T03:54:19;-1.10;99.90
18884;DHT22;9574;47.282;9.640;2023-02-28T03:56:52;-1.10;99.90
18884;DHT22;9574;47.282;9.640;2023-02-28T03:59:23;-1.00;99.90
18884;DHT22;9574;47.282;9.640;2023-02-28T04:01:52;-0.50;99.90
18884;DHT22;9574;47.282;9.640;2023-02-28T04:04:20;-0.20;99.90
18884;DHT22;9574;47.282;9.640;2023-02-28T04:06:51;0.00;99.90
18884;DHT22;9574;47.282;9.640;2023-02-28T04:09:18;-0.10;99.90
18884;DHT22;9574;47.282;9.640;2023-02-28T04:11:48;0.00;99.90
18884;DHT22;9574;47.282;9.640;2023-02-28T04:14:18;0.20;99.90
18884;DHT22;9574;47.282;9.640;2023-02-28T04:16:45;0.20;99.90
18884;DHT22;9574;47.282;9.640;2023-02-28T04:19:13;0.30;99.90
18884;DHT22;9574;47.282;9.640;2023-02-28T04:21:41;0.40;99.90
18884;DHT22;9574;47.282;9.640;2023-02-28T04:24:12;0.40;99.90
18884;DHT22;9574;47.282;9.640;2023-02-28T04:26:41;0.40;99.90
18884;DHT22;9574;47.282;9.640;2023-02-28T04:29:10;0.40;99.90
18884;DHT22;9574;47.282;9.640;2023-02-28T04:31:37;0.40;99.90
18884;DHT22;9574;47.282;9.640;2023-02-28T04:34:05;0.40;99.90
18884;DHT22;9574;47.282;9.640;2023-02-28T04:36:32;0.40;99.90
18884;DHT22;9574;47.282;9.640;2023-02-28T04:38:59;0.40;99.90
18884;DHT22;9574;47.282;9.640;2023-02-28T04:41:27;0.40;99.90
18884;DHT22;9574;47.282;9.640;2023-02-28T04:43:54;0.40;99.90
18884;DHT22;9574;47.282;9.640;2023-02-28T04:46:22;0.40;99.90
18884;DHT22;9574;47.282;9.640;2023-02-28T04:48:49;0.30;99.90
18884;DHT22;9574;47.282;9.640;2023-02-28T04:51:18;0.30;99.90
18884;DHT22;9574;47.282;9.640;2023-02-28T04:53:46;0.40;99.90
18884;DHT22;9574;47.282;9.640;2023-02-28T04:56:14;0.40;99.90
18884;DHT22;9574;47.282;9.640;2023-02-28T04:58:43;0.40;99.90
18884;DHT22;9574;47.282;9.640;2023-02-28T05:01:19;0.40;99.90
18884;DHT22;9574;47.282;9.640;2023-02-28T05:03:47;0.10;99.90
18884;DHT22;9574;47.282;9.640;2023-02-28T05:06:14;-0.20;99.90
18884;DHT22;9574;47.282;9.640;2023-02-28T05:08:42;-0.10;99.90
18884;DHT22;9574;47.282;9.640;2023-02-28T05:11:14;-0.30;99.90
18884;DHT22;9574;47.282;9.640;2023-02-28T05:13:44;-0.20;99.90
18884;DHT22;9574;47.282;9.640;2023-02-28T05:16:11;-0.40;99.90
18884;DHT22;9574;47.282;9.640;2023-02-28T05:18:38;-0.40;99.90
18884;DHT22;9574;47.282;9.640;2023-02-28T05:21:05;-0.40;99.90
18884;DHT22;9574;47.282;9.640;2023-02-28T05:23:33;-0.60;99.90
18884;DHT22;9574;47.282;9.640;2023-02-28T05:26:01;-0.40;99.90
18884;DHT22;9574;47.282;9.640;2023-02-28T05:28:28;-0.10;99.90
18884;DHT22;9574;47.282;9.640;2023-02-28T05:30:57;0.10;99.90
18884;DHT22;9574;47.282;9.640;2023-02-28T05:33:25;0.30;99.90
18884;DHT22;9574;47.282;9.640;2023-02-28T05:35:52;0.30;99.90
18884;DHT22;9574;47.282;9.640;2023-02-28T05:38:19;0.10;99.90
18884;DHT22;9574;47.282;9.640;2023-02-28T05:40:46;-0.30;99.90
18884;DHT22;9574;47.282;9.640;2023-02-28T05:43:15;-0.20;99.90
18884;DHT22;9574;47.282;9.640;2023-02-28T05:45:42;0.10;99.90
18884;DHT22;9574;47.282;9.640;2023-02-28T05:48:11;0.20;99.90
18884;DHT22;9574;47.282;9.640;2023-02-28T05:50:38;0.20;99.90
18884;DHT22;9574;47.282;9.640;2023-02-28T05:53:05;-0.10;99.90
18884;DHT22;9574;47.282;9.640;2023-02-28T05:55:32;-0.30;99.90
18884;DHT22;9574;47.282;9.640;2023-02-28T05:58:01;0.00;99.90
18884;DHT22;9574;47.282;9.640;2023-02-28T06:00:28;0.00;99.90
18884;DHT22;9574;47.282;9.640;2023-02-28T06:02:55;-0.10;99.90
18884;DHT22;9574;47.282;9.640;2023-02-28T06:05:27;-0.30;99.90
18884;DHT22;9574;47.282;9.640;2023-02-28T06:07:54;-0.50;99.90
18884;DHT22;9574;47.282;9.640;2023-02-28T06:10:21;-0.40;99.90
18884;DHT22;9574;47.282;9.640;2023-02-28T06:12:48;-0.10;99.90
18884;DHT22;9574;47.282;9.640;2023-02-28T06:15:16;0.10;99.90
18884;DHT22;9574;47.282;9.640;2023-02-28T06:17:44;0.30;99.90
18884;DHT22;9574;47.282;9.640;2023-02-28T06:20:11;0.30;99.90
18884;DHT22;9574;47.282;9.640;2023-02-28T06:22:40;0.40;99.90
18884;DHT22;9574;47.282;9.640;2023-02-28T06:25:09;0.10;99.90
18884;DHT22;9574;47.282;9.640;2023-02-28T06:27:37;0.20;99.90
18884;DHT22;9574;47.282;9.640;2023-02-28T06:30:04;0.40;99.90
18884;DHT22;9574;47.282;9.640;2023-02-28T06:32:31;0.10;99.90
18884;DHT22;9574;47.282;9.640;2023-02-28T06:34:58;-0.30;99.90
18884;DHT22;9574;47.282;9.640;2023-02-28T06:37:25;-0.50;99.90
18884;DHT22;9574;47.282;9.640;2023-02-28T06:39:54;-0.20;99.90
18884;DHT22;9574;47.282;9.640;2023-02-28T06:42:22;-0.40;99.90
18884;DHT22;9574;47.282;9.640;2023-02-28T06:44:50;0.00;99.90
18884;DHT22;9574;47.282;9.640;2023-02-28T06:47:17;0.00;99.90
18884;DHT22;9574;47.282;9.640;2023-02-28T06:49:44;-0.20;99.90
18884;DHT22;9574;47.282;9.640;2023-02-28T06:54:41;-0.30;99.90
18884;DHT22;9574;47.282;9.640;2023-02-28T06:57:09;0.00;99.90
18884;DHT22;9574;47.282;9.640;2023-02-28T06:59:36;0.30;99.90
18884;DHT22;9574;47.282;9.640;2023-02-28T07:02:03;0.50;99.90
18884;DHT22;9574;47.282;9.640;2023-02-28T07:04:32;0.60;99.90
18884;DHT22;9574;47.282;9.640;2023-02-28T07:06:58;0.80;99.90
18884;DHT22;9574;47.282;9.640;2023-02-28T07:09:25;0.90;99.90
18884;DHT22;9574;47.282;9.640;2023-02-28T07:11:55;1.00;99.90
18884;DHT22;9574;47.282;9.640;2023-02-28T07:14:23;0.90;99.90
18884;DHT22;9574;47.282;9.640;2023-02-28T07:16:51;0.90;99.90
18884;DHT22;9574;47.282;9.640;2023-02-28T07:19:18;1.00;99.90
18884;DHT22;9574;47.282;9.640;2023-02-28T07:21:45;1.10;99.90
18884;DHT22;9574;47.282;9.640;2023-02-28T07:24:13;1.10;99.90
18884;DHT22;9574;47.282;9.640;2023-02-28T07:26:43;0.90;99.90
18884;DHT22;9574;47.282;9.640;2023-02-28T07:29:10;1.00;99.90
18884;DHT22;9574;47.282;9.640;2023-02-28T07:31:38;1.00;99.90
18884;DHT22;9574;47.282;9.640;2023-02-28T07:34:05;1.10;99.90
18884;DHT22;9574;47.282;9.640;2023-02-28T07:36:32;1.30;99.90
18884;DHT22;9574;47.282;9.640;2023-02-28T07:38:59;1.40;99.90
18884;DHT22;9574;47.282;9.640;2023-02-28T07:41:26;1.40;99.90
18884;DHT22;9574;47.282;9.640;2023-02-28T07:43:55;1.60;99.90
18884;DHT22;9574;47.282;9.640;2023-02-28T07:46:23;1.60;99.90
18884;DHT22;9574;47.282;9.640;2023-02-28T07:48:51;1.60;99.90
18884;DHT22;9574;47.282;9.640;2023-02-28T07:51:20;1.40;99.90
18884;DHT22;9574;47.282;9.640;2023-02-28T07:53:49;1.20;99.90
18884;DHT22;9574;47.282;9.640;2023-02-28T07:56:16;1.20;99.90
18884;DHT22;9574;47.282;9.640;2023-02-28T07:58:42;1.00;99.90
18884;DHT22;9574;47.282;9.640;2023-02-28T08:01:10;0.80;99.90
18884;DHT22;9574;47.282;9.640;2023-02-28T08:03:38;0.50;99.90
18884;DHT22;9574;47.282;9.640;2023-02-28T08:06:14;0.50;99.90
18884;DHT22;9574;47.282;9.640;2023-02-28T08:08:42;0.50;99.90
18884;DHT22;9574;47.282;9.640;2023-02-28T08:11:10;0.70;99.90
18884;DHT22;9574;47.282;9.640;2023-02-28T08:13:36;1.10;99.90
18884;DHT22;9574;47.282;9.640;2023-02-28T08:16:04;1.30;99.90
18884;DHT22;9574;47.282;9.640;2023-02-28T08:18:32;1.20;99.90
18884;DHT22;9574;47.282;9.640;2023-02-28T08:20:59;1.20;99.90
18884;DHT22;9574;47.282;9.640;2023-02-28T08:23:27;1.30;99.90
18884;DHT22;9574;47.282;9.640;2023-02-28T08:25:55;1.40;99.90
18884;DHT22;9574;47.282;9.640;2023-02-28T08:28:22;1.40;99.90
18884;DHT22;9574;47.282;9.640;2023-02-28T08:30:49;1.50;99.90
18884;DHT22;9574;47.282;9.640;2023-02-28T08:33:16;1.70;99.90
18884;DHT22;9574;47.282;9.640;2023-02-28T08:35:42;1.80;99.90
18884;DHT22;9574;47.282;9.640;2023-02-28T08:38:09;2.00;99.90
18884;DHT22;9574;47.282;9.640;2023-02-28T08:40:38;2.10;99.90
18884;DHT22;9574;47.282;9.640;2023-02-28T08:43:05;2.20;99.90
18884;DHT22;9574;47.282;9.640;2023-02-28T08:45:32;2.30;99.90
18884;DHT22;9574;47.282;9.640;2023-02-28T08:47:59;2.30;99.90
18884;DHT22;9574;47.282;9.640;2023-02-28T08:50:26;2.40;99.90
18884;DHT22;9574;47.282;9.640;2023-02-28T08:52:53;2.30;99.90
18884;DHT22;9574;47.282;9.640;2023-02-28T08:55:20;2.20;99.90
18884;DHT22;9574;47.282;9.640;2023-02-28T08:57:49;2.40;99.90
18884;DHT22;9574;47.282;9.640;2023-02-28T09:00:16;2.60;99.90
18884;DHT22;9574;47.282;9.640;2023-02-28T09:02:44;2.80;99.90
18884;DHT22;9574;47.282;9.640;2023-02-28T09:05:11;3.00;99.90
18884;DHT22;9574;47.282;9.640;2023-02-28T09:07:37;3.30;99.90
18884;DHT22;9574;47.282;9.640;2023-02-28T09:10:05;3.10;99.90
18884;DHT22;9574;47.282;9.640;2023-02-28T09:12:34;3.40;99.90
18884;DHT22;9574;47.282;9.640;2023-02-28T09:15:03;3.60;99.90
18884;DHT22;9574;47.282;9.640;2023-02-28T09:17:30;3.80;99.90
18884;DHT22;9574;47.282;9.640;2023-02-28T09:19:57;4.00;99.90
18884;DHT22;9574;47.282;9.640;2023-02-28T09:22:24;4.00;99.90
18884;DHT22;9574;47.282;9.640;2023-02-28T09:24:51;4.10;99.90
18884;DHT22;9574;47.282;9.640;2023-02-28T09:27:18;4.10;99.90
18884;DHT22;9574;47.282;9.640;2023-02-28T09:29:45;4.00;99.90
18884;DHT22;9574;47.282;9.640;2023-02-28T09:32:13;4.10;99.90
18884;DHT22;9574;47.282;9.640;2023-02-28T09:34:41;4.00;99.90
18884;DHT22;9574;47.282;9.640;2023-02-28T09:37:08;4.00;99.90
18884;DHT22;9574;47.282;9.640;2023-02-28T09:39:35;3.90;99.90
18884;DHT22;9574;47.282;9.640;2023-02-28T09:42:02;3.80;99.90
18884;DHT22;9574;47.282;9.640;2023-02-28T09:44:33;3.60;99.90
18884;DHT22;9574;47.282;9.640;2023-02-28T09:47:07;3.60;99.90
18884;DHT22;9574;47.282;9.640;2023-02-28T09:49:40;3.60;99.90
18884;DHT22;9574;47.282;9.640;2023-02-28T09:52:10;3.80;99.90
18884;DHT22;9574;47.282;9.640;2023-02-28T09:54:38;3.90;99.90
18884;DHT22;9574;47.282;9.640;2023-02-28T09:57:07;4.00;99.90
18884;DHT22;9574;47.282;9.640;2023-02-28T09:59:59;4.50;99.90
18884;DHT22;9574;47.282;9.640;2023-02-28T10:02:46;5.20;99.90
18884;DHT22;9574;47.282;9.640;2023-02-28T10:05:18;5.70;99.90
18884;DHT22;9574;47.282;9.640;2023-02-28T10:07:58;5.90;99.90
18884;DHT22;9574;47.282;9.640;2023-02-28T10:10:31;6.50;99.90
18884;DHT22;9574;47.282;9.640;2023-02-28T10:13:02;6.70;99.90
18884;DHT22;9574;47.282;9.640;2023-02-28T10:15:32;6.40;99.90
18884;DHT22;9574;47.282;9.640;2023-02-28T10:18:04;6.80;99.90
18884;DHT22;9574;47.282;9.640;2023-02-28T10:20:34;6.90;99.90
18884;DHT22;9574;47.282;9.640;2023-02-28T10:23:07;7.10;99.90
18884;DHT22;9574;47.282;9.640;2023-02-28T10:25:37;6.90;99.90
18884;DHT22;9574;47.282;9.640;2023-02-28T10:28:10;6.90;99.90
18884;DHT22;9574;47.282;9.640;2023-02-28T10:30:39;7.00;99.90
18884;DHT22;9574;47.282;9.640;2023-02-28T10:33:17;7.30;99.90
18884;DHT22;9574;47.282;9.640;2023-02-28T10:35:47;8.00;99.90
18884;DHT22;9574;47.282;9.640;2023-02-28T10:38:19;8.20;99.90
18884;DHT22;9574;47.282;9.640;2023-02-28T10:40:47;8.50;99.90
18884;DHT22;9574;47.282;9.640;2023-02-28T10:43:22;8.70;99.90
18884;DHT22;9574;47.282;9.640;2023-02-28T10:45:56;8.60;99.90
18884;DHT22;9574;47.282;9.640;2023-02-28T10:48:33;8.40;99.90
18884;DHT22;9574;47.282;9.640;2023-02-28T10:51:02;8.50;99.90
18884;DHT22;9574;47.282;9.640;2023-02-28T10:53:37;8.60;99.90
18884;DHT22;9574;47.282;9.640;2023-02-28T10:56:06;8.60;99.90
18884;DHT22;9574;47.282;9.640;2023-02-28T10:58:46;8.30;99.90
18884;DHT22;9574;47.282;9.640;2023-02-28T11:01:17;7.80;99.90
18884;DHT22;9574;47.282;9.640;2023-02-28T11:03:44;8.00;99.90
18884;DHT22;9574;47.282;9.640;2023-02-28T11:06:18;8.30;99.90
18884;DHT22;9574;47.282;9.640;2023-02-28T11:08:48;8.60;99.90
18884;DHT22;9574;47.282;9.640;2023-02-28T11:11:16;8.40;99.90
18884;DHT22;9574;47.282;9.640;2023-02-28T11:13:45;8.40;99.90
18884;DHT22;9574;47.282;9.640;2023-02-28T11:16:14;8.40;99.90
18884;DHT22;9574;47.282;9.640;2023-02-28T11:18:46;8.60;99.90
18884;DHT22;9574;47.282;9.640;2023-02-28T11:21:22;9.00;99.90
18884;DHT22;9574;47.282;9.640;2023-02-28T11:23:52;9.30;99.90
18884;DHT22;9574;47.282;9.640;2023-02-28T11:26:39;9.30;99.90
18884;DHT22;9574;47.282;9.640;2023-02-28T11:29:16;9.10;99.90
18884;DHT22;9574;47.282;9.640;2023-02-28T11:32:05;8.60;99.90
18884;DHT22;9574;47.282;9.640;2023-02-28T11:34:35;8.20;99.90
18884;DHT22;9574;47.282;9.640;2023-02-28T11:37:08;8.00;99.90
18884;DHT22;9574;47.282;9.640;2023-02-28T11:39:36;8.10;99.90
18884;DHT22;9574;47.282;9.640;2023-02-28T11:42:24;8.00;99.90
18884;DHT22;9574;47.282;9.640;2023-02-28T11:45:07;7.90;99.90
18884;DHT22;9574;47.282;9.640;2023-02-28T11:47:42;8.00;99.90
18884;DHT22;9574;47.282;9.640;2023-02-28T11:50:25;8.20;99.90
18884;DHT22;9574;47.282;9.640;2023-02-28T11:52:56;8.40;99.90
18884;DHT22;9574;47.282;9.640;2023-02-28T11:55:25;8.50;99.90
18884;DHT22;9574;47.282;9.640;2023-02-28T11:58:14;8.10;99.90
18884;DHT22;9574;47.282;9.640;2023-02-28T12:01:11;8.20;99.90
18884;DHT22;9574;47.282;9.640;2023-02-28T12:03:47;8.30;99.90
18884;DHT22;9574;47.282;9.640;2023-02-28T12:06:21;8.50;99.90
18884;DHT22;9574;47.282;9.640;2023-02-28T12:09:10;8.90;99.90
18884;DHT22;9574;47.282;9.640;2023-02-28T12:11:50;8.90;99.90
18884;DHT22;9574;47.282;9.640;2023-02-28T12:17:41;8.40;99.90
18884;DHT22;9574;47.282;9.640;2023-02-28T12:20:17;8.20;99.90
18884;DHT22;9574;47.282;9.640;2023-02-28T12:22:53;8.20;99.90
18884;DHT22;9574;47.282;9.640;2023-02-28T12:25:40;7.70;99.90
18884;DHT22;9574;47.282;9.640;2023-02-28T12:28:12;7.80;99.90
18884;DHT22;9574;47.282;9.640;2023-02-28T12:30:44;7.70;99.90
18884;DHT22;9574;47.282;9.640;2023-02-28T12:33:16;7.90;99.90
18884;DHT22;9574;47.282;9.640;2023-02-28T12:35:48;8.30;99.90
18884;DHT22;9574;47.282;9.640;2023-02-28T12:38:19;7.90;99.90
18884;DHT22;9574;47.282;9.640;2023-02-28T12:40:53;8.00;99.90
18884;DHT22;9574;47.282;9.640;2023-02-28T12:43:24;8.10;99.90
18884;DHT22;9574;47.282;9.640;2023-02-28T12:45:56;8.00;99.90
18884;DHT22;9574;47.282;9.640;2023-02-28T12:48:29;7.80;99.90
18884;DHT22;9574;47.282;9.640;2023-02-28T12:50:59;7.90;99.90
18884;DHT22;9574;47.282;9.640;2023-02-28T12:53:30;7.90;99.90
18884;DHT22;9574;47.282;9.640;2023-02-28T12:56:08;8.00;99.90
18884;DHT22;9574;47.282;9.640;2023-02-28T12:58:40;8.20;99.90
18884;DHT22;9574;47.282;9.640;2023-02-28T13:01:26;7.80;99.90
18884;DHT22;9574;47.282;9.640;2023-02-28T13:04:31;8.10;99.90
18884;DHT22;9574;47.282;9.640;2023-02-28T13:07:12;8.00;99.90
18884;DHT22;9574;47.282;9.640;2023-02-28T13:09:52;8.20;99.90
18884;DHT22;9574;47.282;9.640;2023-02-28T13:12:20;8.20;99.90
18884;DHT22;9574;47.282;9.640;2023-02-28T13:14:50;8.00;99.90
18884;DHT22;9574;47.282;9.640;2023-02-28T13:17:19;8.20;99.90
18884;DHT22;9574;47.282;9.640;2023-02-28T13:19:56;8.50;99.90
18884;DHT22;9574;47.282;9.640;2023-02-28T13:22:38;8.20;99.90
18884;DHT22;9574;47.282;9.640;2023-02-28T13:31:19;8.20;99.90
18884;DHT22;9574;47.282;9.640;2023-02-28T13:34:13;8.30;99.90
18884;DHT22;9574;47.282;9.640;2023-02-28T13:36:41;8.20;99.90
18884;DHT22;9574;47.282;9.640;2023-02-28T13:39:45;8.00;99.90
18884;DHT22;9574;47.282;9.640;2023-02-28T13:42:32;8.00;99.90
18884;DHT22;9574;47.282;9.640;2023-02-28T13:45:24;7.80;99.90
18884;DHT22;9574;47.282;9.640;2023-02-28T13:47:53;7.90;99.90
18884;DHT22;9574;47.282;9.640;2023-02-28T13:50:24;8.00;99.90
18884;DHT22;9574;47.282;9.640;2023-02-28T13:53:08;7.90;99.90
18884;DHT22;9574;47.282;9.640;2023-02-28T13:55:45;7.70;99.90
18884;DHT22;9574;47.282;9.640;2023-02-28T13:58:34;7.50;99.90
18884;DHT22;9574;47.282;9.640;2023-02-28T14:01:16;7.60;99.90
18884;DHT22;9574;47.282;9.640;2023-02-28T14:06:59;8.00;99.90
18884;DHT22;9574;47.282;9.640;2023-02-28T14:09:29;7.80;99.90
18884;DHT22;9574;47.282;9.640;2023-02-28T14:11:57;7.60;99.90
18884;DHT22;9574;47.282;9.640;2023-02-28T14:14:53;7.60;99.90
18884;DHT22;9574;47.282;9.640;2023-02-28T14:17:23;7.60;99.90
18884;DHT22;9574;47.282;9.640;2023-02-28T14:19:51;7.50;99.90
18884;DHT22;9574;47.282;9.640;2023-02-28T14:22:38;7.30;99.90
18884;DHT22;9574;47.282;9.640;2023-02-28T14:25:15;7.40;99.90
18884;DHT22;9574;47.282;9.640;2023-02-28T14:27:48;7.40;99.90
18884;DHT22;9574;47.282;9.640;2023-02-28T14:30:40;7.50;99.90
18884;DHT22;9574;47.282;9.640;2023-02-28T14:33:25;7.60;99.90
18884;DHT22;9574;47.282;9.640;2023-02-28T14:36:06;7.20;99.90
18884;DHT22;9574;47.282;9.640;2023-02-28T14:38:37;7.10;99.90
18884;DHT22;9574;47.282;9.640;2023-02-28T14:41:24;6.80;99.90
18884;DHT22;9574;47.282;9.640;2023-02-28T14:43:54;6.60;99.90
18884;DHT22;9574;47.282;9.640;2023-02-28T14:46:23;6.30;99.90
18884;DHT22;9574;47.282;9.640;2023-02-28T14:48:54;6.40;99.90
18884;DHT22;9574;47.282;9.640;2023-02-28T14:51:23;6.30;99.90
18884;DHT22;9574;47.282;9.640;2023-02-28T14:53:55;6.30;99.90
18884;DHT22;9574;47.282;9.640;2023-02-28T14:56:24;6.10;99.90
18884;DHT22;9574;47.282;9.640;2023-02-28T14:58:54;5.80;99.90
18884;DHT22;9574;47.282;9.640;2023-02-28T15:01:23;5.60;99.90
18884;DHT22;9574;47.282;9.640;2023-02-28T15:04:00;5.60;99.90
18884;DHT22;9574;47.282;9.640;2023-02-28T15:06:28;5.50;99.90
18884;DHT22;9574;47.282;9.640;2023-02-28T15:09:10;5.20;99.90
18884;DHT22;9574;47.282;9.640;2023-02-28T15:11:39;5.20;99.90
18884;DHT22;9574;47.282;9.640;2023-02-28T15:14:07;5.20;99.90
18884;DHT22;9574;47.282;9.640;2023-02-28T15:16:42;5.10;99.90
18884;DHT22;9574;47.282;9.640;2023-02-28T15:19:17;5.00;99.90
18884;DHT22;9574;47.282;9.640;2023-02-28T15:21:49;5.10;99.90
18884;DHT22;9574;47.282;9.640;2023-02-28T15:24:19;5.00;99.90
18884;DHT22;9574;47.282;9.640;2023-02-28T15:26:53;5.00;99.90
18884;DHT22;9574;47.282;9.640;2023-02-28T15:29:23;4.80;99.90
18884;DHT22;9574;47.282;9.640;2023-02-28T15:31:56;4.70;99.90
18884;DHT22;9574;47.282;9.640;2023-02-28T15:34:33;4.60;99.90
18884;DHT22;9574;47.282;9.640;2023-02-28T15:37:00;4.60;99.90
18884;DHT22;9574;47.282;9.640;2023-02-28T15:39:28;4.70;99.90
18884;DHT22;9574;47.282;9.640;2023-02-28T15:42:10;4.70;99.90
18884;DHT22;9574;47.282;9.640;2023-02-28T15:44:37;4.60;99.90
18884;DHT22;9574;47.282;9.640;2023-02-28T15:47:06;4.50;99.90
18884;DHT22;9574;47.282;9.640;2023-02-28T15:49:39;4.60;99.90
18884;DHT22;9574;47.282;9.640;2023-02-28T15:52:13;4.60;99.90
18884;DHT22;9574;47.282;9.640;2023-02-28T15:54:41;4.60;99.90
18884;DHT22;9574;47.282;9.640;2023-02-28T15:57:13;4.60;99.90
18884;DHT22;9574;47.282;9.640;2023-02-28T15:59:48;4.50;99.90
18884;DHT22;9574;47.282;9.640;2023-02-28T16:02:17;4.50;99.90
18884;DHT22;9574;47.282;9.640;2023-02-28T16:04:59;4.40;99.90
18884;DHT22;9574;47.282;9.640;2023-02-28T16:07:26;4.40;99.90
18884;DHT22;9574;47.282;9.640;2023-02-28T16:09:54;4.30;99.90
18884;DHT22;9574;47.282;9.640;2023-02-28T16:12:25;4.10;99.90
18884;DHT22;9574;47.282;9.640;2023-02-28T16:14:54;4.10;99.90
18884;DHT22;9574;47.282;9.640;2023-02-28T16:17:24;4.10;99.90
18884;DHT22;9574;47.282;9.640;2023-02-28T16:19:52;4.00;99.90
18884;DHT22;9574;47.282;9.640;2023-02-28T16:22:21;4.10;99.90
18884;DHT22;9574;47.282;9.640;2023-02-28T16:24:48;4.20;99.90
18884;DHT22;9574;47.282;9.640;2023-02-28T16:27:18;4.20;99.90
18884;DHT22;9574;47.282;9.640;2023-02-28T16:29:47;4.30;99.90
18884;DHT22;9574;47.282;9.640;2023-02-28T16:32:15;4.20;99.90
18884;DHT22;9574;47.282;9.640;2023-02-28T16:34:43;4.30;99.90
18884;DHT22;9574;47.282;9.640;2023-02-28T16:37:13;4.40;99.90
18884;DHT22;9574;47.282;9.640;2023-02-28T16:39:42;4.30;99.90
18884;DHT22;9574;47.282;9.640;2023-02-28T16:42:16;4.20;99.90
18884;DHT22;9574;47.282;9.640;2023-02-28T16:44:46;4.10;99.90
18884;DHT22;9574;47.282;9.640;2023-02-28T16:47:13;4.10;99.90